sensor_id;sensor_type;location;lat;lon;timestamp;temperature;humidity
16408;DHT22;8313;49.894;8.084;2023-07-13T00:00:54;21.80;75.10
16408;DHT22;8313;49.894;8.084;2023-07-13T00:03:21;21.70;75.50
16408;DHT22;8313;49.894;8.084;2023-07-13T00:05:47;21.70;75.40
16408;DHT22;8313;49.894;8.084;2023-07-13T00:08:22;21.80;75.30
16408;DHT22;8313;49.894;8.084;2023-07-13T00:10:48;21.80;75.30
16408;DHT22;8313;49.894;8.084;2023-07-13T00:13:20;21.80;75.40
16408;DHT22;8313;49.894;8.084;2023-07-13T00:15:45;21.70;75.20
16408;DHT22;8313;49.894;8.084;2023-07-13T00:18:12;21.70;75.20
16408;DHT22;8313;49.894;8.084;2023-07-13T00:20:37;21.70;75.40
16408;DHT22;8313;49.894;8.084;2023-07-13T00:23:03;21.60;75.50
16408;DHT22;8313;49.894;8.084;2023-07-13T00:25:29;21.60;75.70
16408;DHT22;8313;49.894;8.084;2023-07-13T00:27:55;21.70;75.70
16408;DHT22;8313;49.894;8.084;2023-07-13T00:30:21;21.60;75.60
16408;DHT22;8313;49.894;8.084;2023-07-13T00:32:47;21.60;75.40
16408;DHT22;8313;49.894;8.084;2023-07-13T00:35:14;21.60;75.50
16408;DHT22;8313;49.894;8.084;2023-07-13T00:37:40;21.60;76.50
16408;DHT22;8313;49.894;8.084;2023-07-13T00:40:06;21.60;75.60
16408;DHT22;8313;49.894;8.084;2023-07-13T00:42:32;21.60;75.50
16408;DHT22;8313;49.894;8.084;2023-07-13T00:47:54;21.40;75.70
16408;DHT22;8313;49.894;8.084;2023-07-13T00:50:22;21.30;75.90
16408;DHT22;8313;49.894;8.084;2023-07-13T00:52:52;21.20;76.30
16408;DHT22;8313;49.894;8.084;2023-07-13T00:55:20;21.20;76.60
16408;DHT22;8313;49.894;8.084;2023-07-13T00:57:47;21.10;76.70
16408;DHT22;8313;49.894;8.084;2023-07-13T01:00:13;21.20;76.70
16408;DHT22;8313;49.894;8.084;2023-07-13T01:02:42;21.20;76.60
16408;DHT22;8313;49.894;8.084;2023-07-13T01:05:19;21.20;76.30
16408;DHT22;8313;49.894;8.084;2023-07-13T01:07:46;21.20;76.50
16408;DHT22;8313;49.894;8.084;2023-07-13T01:10:13;21.00;76.80
16408;DHT22;8313;49.894;8.084;2023-07-13T01:12:39;21.00;77.00
16408;DHT22;8313;49.894;8.084;2023-07-13T01:15:32;21.00;76.90
16408;DHT22;8313;49.894;8.084;2023-07-13T01:17:52;21.10;76.80
16408;DHT22;8313;49.894;8.084;2023-07-13T01:20:17;21.00;76.70
16408;DHT22;8313;49.894;8.084;2023-07-13T01:22:43;21.00;76.90
16408;DHT22;8313;49.894;8.084;2023-07-13T01:25:09;21.00;76.90
16408;DHT22;8313;49.894;8.084;2023-07-13T01:27:35;20.90;77.10
16408;DHT22;8313;49.894;8.084;2023-07-13T01:30:02;20.90;77.10
16408;DHT22;8313;49.894;8.084;2023-07-13T01:32:27;20.90;77.10
16408;DHT22;8313;49.894;8.084;2023-07-13T01:34:55;20.80;77.20
16408;DHT22;8313;49.894;8.084;2023-07-13T01:37:21;20.60;77.40
16408;DHT22;8313;49.894;8.084;2023-07-13T01:39:46;20.50;77.90
16408;DHT22;8313;49.894;8.084;2023-07-13T01:42:13;20.50;78.10
16408;DHT22;8313;49.894;8.084;2023-07-13T01:44:40;20.30;78.10
16408;DHT22;8313;49.894;8.084;2023-07-13T01:47:07;20.40;78.30
16408;DHT22;8313;49.894;8.084;2023-07-13T01:49:32;20.30;78.10
16408;DHT22;8313;49.894;8.084;2023-07-13T01:51:58;20.20;78.40
16408;DHT22;8313;49.894;8.084;2023-07-13T01:54:24;20.20;78.80
16408;DHT22;8313;49.894;8.084;2023-07-13T01:56:50;20.30;78.30
16408;DHT22;8313;49.894;8.084;2023-07-13T01:59:15;20.40;78.00
16408;DHT22;8313;49.894;8.084;2023-07-13T02:01:41;20.40;78.00
16408;DHT22;8313;49.894;8.084;2023-07-13T02:04:07;20.40;78.10
16408;DHT22;8313;49.894;8.084;2023-07-13T02:06:33;20.40;78.20
16408;DHT22;8313;49.894;8.084;2023-07-13T02:08:59;20.50;78.00
16408;DHT22;8313;49.894;8.084;2023-07-13T02:11:25;20.50;78.00
16408;DHT22;8313;49.894;8.084;2023-07-13T02:14:01;20.50;77.90
16408;DHT22;8313;49.894;8.084;2023-07-13T02:16:28;20.40;78.00
16408;DHT22;8313;49.894;8.084;2023-07-13T02:18:53;20.40;78.00
16408;DHT22;8313;49.894;8.084;2023-07-13T02:21:21;20.20;78.80
16408;DHT22;8313;49.894;8.084;2023-07-13T02:23:47;20.10;79.10
16408;DHT22;8313;49.894;8.084;2023-07-13T02:26:16;20.10;79.20
16408;DHT22;8313;49.894;8.084;2023-07-13T02:28:41;20.10;79.10
16408;DHT22;8313;49.894;8.084;2023-07-13T02:31:09;20.20;78.90
16408;DHT22;8313;49.894;8.084;2023-07-13T02:33:35;20.20;79.00
16408;DHT22;8313;49.894;8.084;2023-07-13T02:36:01;20.20;79.00
16408;DHT22;8313;49.894;8.084;2023-07-13T02:38:27;20.20;78.90
16408;DHT22;8313;49.894;8.084;2023-07-13T02:40:53;20.10;78.90
16408;DHT22;8313;49.894;8.084;2023-07-13T02:43:19;20.10;78.90
16408;DHT22;8313;49.894;8.084;2023-07-13T02:45:46;20.10;78.90
16408;DHT22;8313;49.894;8.084;2023-07-13T02:48:14;20.10;79.80
16408;DHT22;8313;49.894;8.084;2023-07-13T02:50:39;20.00;79.20
16408;DHT22;8313;49.894;8.084;2023-07-13T02:53:05;20.00;79.30
16408;DHT22;8313;49.894;8.084;2023-07-13T02:55:31;19.90;79.30
16408;DHT22;8313;49.894;8.084;2023-07-13T02:57:57;19.90;79.30
16408;DHT22;8313;49.894;8.084;2023-07-13T03:00:23;19.90;79.50
16408;DHT22;8313;49.894;8.084;2023-07-13T03:02:48;19.80;79.80
16408;DHT22;8313;49.894;8.084;2023-07-13T03:05:16;19.80;79.80
16408;DHT22;8313;49.894;8.084;2023-07-13T03:07:43;19.70;80.00
16408;DHT22;8313;49.894;8.084;2023-07-13T03:10:09;19.70;80.20
16408;DHT22;8313;49.894;8.084;2023-07-13T03:12:42;19.60;80.30
16408;DHT22;8313;49.894;8.084;2023-07-13T03:15:16;19.50;80.50
16408;DHT22;8313;49.894;8.084;2023-07-13T03:17:43;19.50;80.80
16408;DHT22;8313;49.894;8.084;2023-07-13T03:20:09;19.40;80.80
16408;DHT22;8313;49.894;8.084;2023-07-13T03:22:35;19.30;81.20
16408;DHT22;8313;49.894;8.084;2023-07-13T03:25:01;19.10;81.70
16408;DHT22;8313;49.894;8.084;2023-07-13T03:27:27;19.10;82.00
16408;DHT22;8313;49.894;8.084;2023-07-13T03:29:54;19.00;82.10
16408;DHT22;8313;49.894;8.084;2023-07-13T03:32:20;18.90;82.50
16408;DHT22;8313;49.894;8.084;2023-07-13T03:34:45;18.70;83.50
16408;DHT22;8313;49.894;8.084;2023-07-13T03:37:12;18.60;83.60
16408;DHT22;8313;49.894;8.084;2023-07-13T03:39:38;18.50;84.20
16408;DHT22;8313;49.894;8.084;2023-07-13T03:42:04;18.60;84.30
16408;DHT22;8313;49.894;8.084;2023-07-13T03:44:30;18.70;84.00
16408;DHT22;8313;49.894;8.084;2023-07-13T03:46:56;18.60;84.10
16408;DHT22;8313;49.894;8.084;2023-07-13T03:49:23;18.70;83.70
16408;DHT22;8313;49.894;8.084;2023-07-13T03:51:48;18.80;84.00
16408;DHT22;8313;49.894;8.084;2023-07-13T03:54:14;18.80;84.00
16408;DHT22;8313;49.894;8.084;2023-07-13T03:56:40;18.70;84.30
16408;DHT22;8313;49.894;8.084;2023-07-13T03:59:08;18.80;83.80
16408;DHT22;8313;49.894;8.084;2023-07-13T04:01:34;18.90;83.80
16408;DHT22;8313;49.894;8.084;2023-07-13T04:04:00;18.90;83.80
16408;DHT22;8313;49.894;8.084;2023-07-13T04:06:28;18.90;83.60
16408;DHT22;8313;49.894;8.084;2023-07-13T04:08:59;18.90;83.50
16408;DHT22;8313;49.894;8.084;2023-07-13T04:11:29;19.00;84.00
16408;DHT22;8313;49.894;8.084;2023-07-13T04:13:55;18.90;83.80
16408;DHT22;8313;49.894;8.084;2023-07-13T04:16:21;18.90;83.70
16408;DHT22;8313;49.894;8.084;2023-07-13T04:18:48;19.10;83.70
16408;DHT22;8313;49.894;8.084;2023-07-13T04:21:14;19.10;83.70
16408;DHT22;8313;49.894;8.084;2023-07-13T04:23:40;19.10;84.00
16408;DHT22;8313;49.894;8.084;2023-07-13T04:26:06;18.90;84.30
16408;DHT22;8313;49.894;8.084;2023-07-13T04:28:32;18.90;84.50
16408;DHT22;8313;49.894;8.084;2023-07-13T04:30:58;18.90;85.30
16408;DHT22;8313;49.894;8.084;2023-07-13T04:33:24;18.90;84.30
16408;DHT22;8313;49.894;8.084;2023-07-13T04:35:51;19.00;84.30
16408;DHT22;8313;49.894;8.084;2023-07-13T04:38:20;19.00;85.00
16408;DHT22;8313;49.894;8.084;2023-07-13T04:40:47;19.10;84.40
16408;DHT22;8313;49.894;8.084;2023-07-13T04:43:13;19.10;84.20
16408;DHT22;8313;49.894;8.084;2023-07-13T04:45:38;19.10;84.50
16408;DHT22;8313;49.894;8.084;2023-07-13T04:48:04;19.00;85.20
16408;DHT22;8313;49.894;8.084;2023-07-13T04:50:30;19.10;84.50
16408;DHT22;8313;49.894;8.084;2023-07-13T04:52:56;19.20;83.80
16408;DHT22;8313;49.894;8.084;2023-07-13T04:55:21;19.30;84.10
16408;DHT22;8313;49.894;8.084;2023-07-13T04:57:48;19.40;84.00
16408;DHT22;8313;49.894;8.084;2023-07-13T05:00:14;19.40;84.00
16408;DHT22;8313;49.894;8.084;2023-07-13T05:02:44;19.40;84.10
16408;DHT22;8313;49.894;8.084;2023-07-13T05:05:10;19.20;85.00
16408;DHT22;8313;49.894;8.084;2023-07-13T05:07:35;19.10;85.70
16408;DHT22;8313;49.894;8.084;2023-07-13T05:10:02;19.10;85.50
16408;DHT22;8313;49.894;8.084;2023-07-13T05:12:29;19.10;85.40
16408;DHT22;8313;49.894;8.084;2023-07-13T05:14:55;19.20;85.70
16408;DHT22;8313;49.894;8.084;2023-07-13T05:17:21;19.20;85.70
16408;DHT22;8313;49.894;8.084;2023-07-13T05:19:48;19.20;85.70
16408;DHT22;8313;49.894;8.084;2023-07-13T05:22:14;19.20;85.90
16408;DHT22;8313;49.894;8.084;2023-07-13T05:24:40;19.20;86.00
16408;DHT22;8313;49.894;8.084;2023-07-13T05:27:05;19.20;85.90
16408;DHT22;8313;49.894;8.084;2023-07-13T05:29:31;19.30;85.80
16408;DHT22;8313;49.894;8.084;2023-07-13T05:31:57;19.30;85.90
16408;DHT22;8313;49.894;8.084;2023-07-13T05:34:23;19.10;86.70
16408;DHT22;8313;49.894;8.084;2023-07-13T05:36:49;19.10;86.70
16408;DHT22;8313;49.894;8.084;2023-07-13T05:39:15;19.10;87.20
16408;DHT22;8313;49.894;8.084;2023-07-13T05:41:41;19.00;87.30
16408;DHT22;8313;49.894;8.084;2023-07-13T05:44:07;18.80;88.80
16408;DHT22;8313;49.894;8.084;2023-07-13T05:46:32;18.80;89.20
16408;DHT22;8313;49.894;8.084;2023-07-13T05:48:59;18.70;89.80
16408;DHT22;8313;49.894;8.084;2023-07-13T05:51:25;18.70;89.60
16408;DHT22;8313;49.894;8.084;2023-07-13T05:53:50;18.60;90.20
16408;DHT22;8313;49.894;8.084;2023-07-13T05:56:16;18.60;90.50
16408;DHT22;8313;49.894;8.084;2023-07-13T05:58:41;18.60;90.40
16408;DHT22;8313;49.894;8.084;2023-07-13T06:01:11;18.50;90.80
16408;DHT22;8313;49.894;8.084;2023-07-13T06:03:37;18.50;90.90
16408;DHT22;8313;49.894;8.084;2023-07-13T06:06:07;18.70;90.60
16408;DHT22;8313;49.894;8.084;2023-07-13T06:08:33;18.80;90.80
16408;DHT22;8313;49.894;8.084;2023-07-13T06:11:04;18.60;91.10
16408;DHT22;8313;49.894;8.084;2023-07-13T06:13:30;18.60;91.20
16408;DHT22;8313;49.894;8.084;2023-07-13T06:15:55;18.70;91.30
16408;DHT22;8313;49.894;8.084;2023-07-13T06:18:21;18.70;91.30
16408;DHT22;8313;49.894;8.084;2023-07-13T06:20:46;18.90;91.30
16408;DHT22;8313;49.894;8.084;2023-07-13T06:23:12;19.00;91.30
16408;DHT22;8313;49.894;8.084;2023-07-13T06:25:38;18.80;91.50
16408;DHT22;8313;49.894;8.084;2023-07-13T06:28:05;18.80;91.80
16408;DHT22;8313;49.894;8.084;2023-07-13T06:30:30;18.80;91.80
16408;DHT22;8313;49.894;8.084;2023-07-13T06:32:57;18.90;92.00
16408;DHT22;8313;49.894;8.084;2023-07-13T06:35:23;19.00;91.80
16408;DHT22;8313;49.894;8.084;2023-07-13T06:37:48;19.20;91.70
16408;DHT22;8313;49.894;8.084;2023-07-13T06:40:14;19.20;92.00
16408;DHT22;8313;49.894;8.084;2023-07-13T06:42:40;19.20;91.90
16408;DHT22;8313;49.894;8.084;2023-07-13T06:45:06;19.30;91.90
16408;DHT22;8313;49.894;8.084;2023-07-13T06:47:32;19.40;91.90
16408;DHT22;8313;49.894;8.084;2023-07-13T06:49:57;19.40;91.70
16408;DHT22;8313;49.894;8.084;2023-07-13T06:52:23;19.40;91.60
16408;DHT22;8313;49.894;8.084;2023-07-13T06:54:49;19.50;91.40
16408;DHT22;8313;49.894;8.084;2023-07-13T06:57:14;19.50;91.30
16408;DHT22;8313;49.894;8.084;2023-07-13T06:59:40;19.60;91.10
16408;DHT22;8313;49.894;8.084;2023-07-13T07:02:06;19.80;90.90
16408;DHT22;8313;49.894;8.084;2023-07-13T07:04:34;19.80;90.40
16408;DHT22;8313;49.894;8.084;2023-07-13T07:06:59;19.90;90.20
16408;DHT22;8313;49.894;8.084;2023-07-13T07:09:25;19.90;90.10
16408;DHT22;8313;49.894;8.084;2023-07-13T07:11:51;20.00;90.10
16408;DHT22;8313;49.894;8.084;2023-07-13T07:14:16;20.10;90.00
16408;DHT22;8313;49.894;8.084;2023-07-13T07:16:43;20.10;90.00
16408;DHT22;8313;49.894;8.084;2023-07-13T07:19:08;20.30;90.10
16408;DHT22;8313;49.894;8.084;2023-07-13T07:21:34;20.30;90.00
16408;DHT22;8313;49.894;8.084;2023-07-13T07:24:00;20.40;90.10
16408;DHT22;8313;49.894;8.084;2023-07-13T07:26:26;20.50;90.20
16408;DHT22;8313;49.894;8.084;2023-07-13T07:28:51;20.60;89.80
16408;DHT22;8313;49.894;8.084;2023-07-13T07:31:17;20.70;89.80
16408;DHT22;8313;49.894;8.084;2023-07-13T07:33:43;20.80;89.30
16408;DHT22;8313;49.894;8.084;2023-07-13T07:36:08;20.90;89.30
16408;DHT22;8313;49.894;8.084;2023-07-13T07:38:34;21.00;88.70
16408;DHT22;8313;49.894;8.084;2023-07-13T07:41:06;21.00;86.70
16408;DHT22;8313;49.894;8.084;2023-07-13T07:43:31;21.10;86.60
16408;DHT22;8313;49.894;8.084;2023-07-13T07:45:58;21.10;86.60
16408;DHT22;8313;49.894;8.084;2023-07-13T07:48:23;21.20;86.90
16408;DHT22;8313;49.894;8.084;2023-07-13T07:50:49;21.30;86.40
16408;DHT22;8313;49.894;8.084;2023-07-13T07:53:15;21.30;85.90
16408;DHT22;8313;49.894;8.084;2023-07-13T07:55:40;21.40;86.10
16408;DHT22;8313;49.894;8.084;2023-07-13T07:58:07;21.60;85.50
16408;DHT22;8313;49.894;8.084;2023-07-13T08:00:33;21.70;84.50
16408;DHT22;8313;49.894;8.084;2023-07-13T08:02:59;21.70;83.60
16408;DHT22;8313;49.894;8.084;2023-07-13T08:05:25;21.80;83.90
16408;DHT22;8313;49.894;8.084;2023-07-13T08:07:51;21.90;84.30
16408;DHT22;8313;49.894;8.084;2023-07-13T08:10:17;21.90;84.20
16408;DHT22;8313;49.894;8.084;2023-07-13T08:12:43;21.90;83.30
16408;DHT22;8313;49.894;8.084;2023-07-13T08:15:14;22.00;83.60
16408;DHT22;8313;49.894;8.084;2023-07-13T08:17:40;22.00;83.30
16408;DHT22;8313;49.894;8.084;2023-07-13T08:20:07;22.10;83.50
16408;DHT22;8313;49.894;8.084;2023-07-13T08:22:34;22.20;82.90
16408;DHT22;8313;49.894;8.084;2023-07-13T08:25:01;22.20;83.40
16408;DHT22;8313;49.894;8.084;2023-07-13T08:27:28;22.50;83.10
16408;DHT22;8313;49.894;8.084;2023-07-13T08:29:54;22.60;83.20
16408;DHT22;8313;49.894;8.084;2023-07-13T08:32:21;22.80;81.60
16408;DHT22;8313;49.894;8.084;2023-07-13T08:34:48;22.90;80.60
16408;DHT22;8313;49.894;8.084;2023-07-13T08:37:14;23.00;79.70
16408;DHT22;8313;49.894;8.084;2023-07-13T08:39:40;23.00;79.20
16408;DHT22;8313;49.894;8.084;2023-07-13T08:42:22;23.00;79.20
16408;DHT22;8313;49.894;8.084;2023-07-13T08:47:34;23.00;80.20
16408;DHT22;8313;49.894;8.084;2023-07-13T08:50:02;23.10;79.90
16408;DHT22;8313;49.894;8.084;2023-07-13T08:52:39;23.20;79.00
16408;DHT22;8313;49.894;8.084;2023-07-13T08:55:29;23.20;78.90
16408;DHT22;8313;49.894;8.084;2023-07-13T08:58:11;23.40;78.90
16408;DHT22;8313;49.894;8.084;2023-07-13T09:03:23;23.80;78.80
16408;DHT22;8313;49.894;8.084;2023-07-13T09:05:57;23.90;76.90
16408;DHT22;8313;49.894;8.084;2023-07-13T09:10:52;23.90;76.70
16408;DHT22;8313;49.894;8.084;2023-07-13T09:13:43;24.10;77.10
16408;DHT22;8313;49.894;8.084;2023-07-13T09:16:12;24.30;74.30
16408;DHT22;8313;49.894;8.084;2023-07-13T09:18:42;24.40;73.90
16408;DHT22;8313;49.894;8.084;2023-07-13T09:21:10;24.20;74.30
16408;DHT22;8313;49.894;8.084;2023-07-13T09:23:38;24.40;73.60
16408;DHT22;8313;49.894;8.084;2023-07-13T09:28:41;24.50;72.10
16408;DHT22;8313;49.894;8.084;2023-07-13T09:31:15;24.60;70.40
16408;DHT22;8313;49.894;8.084;2023-07-13T09:33:42;24.60;71.10
16408;DHT22;8313;49.894;8.084;2023-07-13T09:36:29;24.60;71.40
16408;DHT22;8313;49.894;8.084;2023-07-13T09:42:34;24.80;71.80
16408;DHT22;8313;49.894;8.084;2023-07-13T09:47:17;25.00;72.20
16408;DHT22;8313;49.894;8.084;2023-07-13T09:49:44;25.10;72.90
16408;DHT22;8313;49.894;8.084;2023-07-13T09:52:15;25.20;71.20
16408;DHT22;8313;49.894;8.084;2023-07-13T09:54:45;25.20;70.80
16408;DHT22;8313;49.894;8.084;2023-07-13T09:57:17;25.20;71.80
16408;DHT22;8313;49.894;8.084;2023-07-13T09:59:48;25.50;70.40
16408;DHT22;8313;49.894;8.084;2023-07-13T10:02:35;25.50;71.20
16408;DHT22;8313;49.894;8.084;2023-07-13T10:05:07;25.70;69.70
16408;DHT22;8313;49.894;8.084;2023-07-13T10:07:42;25.70;70.60
16408;DHT22;8313;49.894;8.084;2023-07-13T10:10:15;25.90;69.30
16408;DHT22;8313;49.894;8.084;2023-07-13T10:12:41;25.90;68.60
16408;DHT22;8313;49.894;8.084;2023-07-13T10:15:14;26.00;67.50
16408;DHT22;8313;49.894;8.084;2023-07-13T10:17:41;26.10;67.30
16408;DHT22;8313;49.894;8.084;2023-07-13T10:20:07;26.20;65.90
16408;DHT22;8313;49.894;8.084;2023-07-13T10:23:08;26.20;66.70
16408;DHT22;8313;49.894;8.084;2023-07-13T10:25:39;26.20;66.40
16408;DHT22;8313;49.894;8.084;2023-07-13T10:28:30;26.40;65.10
16408;DHT22;8313;49.894;8.084;2023-07-13T10:30:59;26.20;65.80
16408;DHT22;8313;49.894;8.084;2023-07-13T10:33:26;26.30;66.10
16408;DHT22;8313;49.894;8.084;2023-07-13T10:35:57;26.50;65.30
16408;DHT22;8313;49.894;8.084;2023-07-13T10:38:27;26.60;66.10
16408;DHT22;8313;49.894;8.084;2023-07-13T10:41:07;27.00;64.70
16408;DHT22;8313;49.894;8.084;2023-07-13T10:43:44;26.80;65.00
16408;DHT22;8313;49.894;8.084;2023-07-13T10:46:14;26.90;65.60
16408;DHT22;8313;49.894;8.084;2023-07-13T10:48:42;27.10;64.60
16408;DHT22;8313;49.894;8.084;2023-07-13T10:51:10;27.00;63.50
16408;DHT22;8313;49.894;8.084;2023-07-13T10:53:38;27.20;61.40
16408;DHT22;8313;49.894;8.084;2023-07-13T10:58:42;27.20;63.10
16408;DHT22;8313;49.894;8.084;2023-07-13T11:01:14;27.40;62.30
16408;DHT22;8313;49.894;8.084;2023-07-13T11:12:27;28.00;60.20
16408;DHT22;8313;49.894;8.084;2023-07-13T11:35:44;27.30;60.00
16408;DHT22;8313;49.894;8.084;2023-07-13T11:38:19;27.60;59.50
16408;DHT22;8313;49.894;8.084;2023-07-13T11:40:48;27.70;59.80
16408;DHT22;8313;49.894;8.084;2023-07-13T11:43:16;27.80;59.70
16408;DHT22;8313;49.894;8.084;2023-07-13T11:45:43;27.70;59.40
16408;DHT22;8313;49.894;8.084;2023-07-13T11:50:53;27.80;59.00
16408;DHT22;8313;49.894;8.084;2023-07-13T11:53:22;27.80;59.10
16408;DHT22;8313;49.894;8.084;2023-07-13T11:55:48;27.70;58.80
16408;DHT22;8313;49.894;8.084;2023-07-13T11:58:19;27.50;58.80
16408;DHT22;8313;49.894;8.084;2023-07-13T12:00:46;27.50;59.00
16408;DHT22;8313;49.894;8.084;2023-07-13T12:03:19;27.40;59.20
16408;DHT22;8313;49.894;8.084;2023-07-13T12:06:01;27.40;59.20
16408;DHT22;8313;49.894;8.084;2023-07-13T12:08:28;27.30;59.00
16408;DHT22;8313;49.894;8.084;2023-07-13T12:11:00;27.20;59.00
16408;DHT22;8313;49.894;8.084;2023-07-13T12:13:27;27.20;59.10
16408;DHT22;8313;49.894;8.084;2023-07-13T12:15:54;27.20;59.20
16408;DHT22;8313;49.894;8.084;2023-07-13T12:18:23;27.30;59.20
16408;DHT22;8313;49.894;8.084;2023-07-13T12:20:57;27.30;59.10
16408;DHT22;8313;49.894;8.084;2023-07-13T12:23:34;27.30;59.20
16408;DHT22;8313;49.894;8.084;2023-07-13T12:26:03;27.20;59.40
16408;DHT22;8313;49.894;8.084;2023-07-13T12:28:37;27.20;59.50
16408;DHT22;8313;49.894;8.084;2023-07-13T12:31:24;27.30;59.30
16408;DHT22;8313;49.894;8.084;2023-07-13T12:33:57;27.10;58.90
16408;DHT22;8313;49.894;8.084;2023-07-13T12:36:23;27.10;59.10
16408;DHT22;8313;49.894;8.084;2023-07-13T12:38:49;27.10;58.80
16408;DHT22;8313;49.894;8.084;2023-07-13T12:41:16;27.00;58.60
16408;DHT22;8313;49.894;8.084;2023-07-13T12:43:45;27.00;59.10
16408;DHT22;8313;49.894;8.084;2023-07-13T12:46:23;27.00;59.10
16408;DHT22;8313;49.894;8.084;2023-07-13T12:48:51;26.90;59.10
16408;DHT22;8313;49.894;8.084;2023-07-13T12:51:21;26.70;58.90
16408;DHT22;8313;49.894;8.084;2023-07-13T12:53:51;26.70;59.20
16408;DHT22;8313;49.894;8.084;2023-07-13T12:56:23;26.70;59.70
16408;DHT22;8313;49.894;8.084;2023-07-13T12:58:50;26.50;59.60
16408;DHT22;8313;49.894;8.084;2023-07-13T13:01:21;26.60;59.70
16408;DHT22;8313;49.894;8.084;2023-07-13T13:03:51;26.60;59.80
16408;DHT22;8313;49.894;8.084;2023-07-13T13:06:28;26.50;59.40
16408;DHT22;8313;49.894;8.084;2023-07-13T13:08:59;26.50;59.10
16408;DHT22;8313;49.894;8.084;2023-07-13T13:11:26;26.50;59.00
16408;DHT22;8313;49.894;8.084;2023-07-13T13:13:53;26.50;59.20
16408;DHT22;8313;49.894;8.084;2023-07-13T13:18:45;26.50;59.70
16408;DHT22;8313;49.894;8.084;2023-07-13T13:21:11;26.50;59.70
16408;DHT22;8313;49.894;8.084;2023-07-13T13:23:36;26.50;59.80
16408;DHT22;8313;49.894;8.084;2023-07-13T13:26:02;26.60;59.60
16408;DHT22;8313;49.894;8.084;2023-07-13T13:28:29;26.50;59.50
16408;DHT22;8313;49.894;8.084;2023-07-13T13:30:55;26.50;59.70
16408;DHT22;8313;49.894;8.084;2023-07-13T13:33:21;26.40;59.30
16408;DHT22;8313;49.894;8.084;2023-07-13T13:35:47;26.40;59.50
16408;DHT22;8313;49.894;8.084;2023-07-13T13:38:39;26.50;59.40
16408;DHT22;8313;49.894;8.084;2023-07-13T13:41:05;26.50;59.60
16408;DHT22;8313;49.894;8.084;2023-07-13T13:43:32;26.70;59.30
16408;DHT22;8313;49.894;8.084;2023-07-13T13:45:59;26.70;59.60
16408;DHT22;8313;49.894;8.084;2023-07-13T13:48:35;26.70;59.00
16408;DHT22;8313;49.894;8.084;2023-07-13T13:51:12;26.70;59.30
16408;DHT22;8313;49.894;8.084;2023-07-13T13:53:38;26.70;59.10
16408;DHT22;8313;49.894;8.084;2023-07-13T13:56:05;26.70;59.30
16408;DHT22;8313;49.894;8.084;2023-07-13T13:58:30;26.70;59.00
16408;DHT22;8313;49.894;8.084;2023-07-13T14:00:56;26.70;59.00
16408;DHT22;8313;49.894;8.084;2023-07-13T14:03:23;26.60;58.80
16408;DHT22;8313;49.894;8.084;2023-07-13T14:05:49;26.60;59.40
16408;DHT22;8313;49.894;8.084;2023-07-13T14:08:17;26.60;59.10
16408;DHT22;8313;49.894;8.084;2023-07-13T14:10:51;26.50;58.40
16408;DHT22;8313;49.894;8.084;2023-07-13T14:13:25;26.50;58.90
16408;DHT22;8313;49.894;8.084;2023-07-13T14:15:53;26.50;58.10
16408;DHT22;8313;49.894;8.084;2023-07-13T14:18:19;26.40;58.10
16408;DHT22;8313;49.894;8.084;2023-07-13T14:20:46;26.50;58.30
16408;DHT22;8313;49.894;8.084;2023-07-13T14:23:16;26.40;58.70
16408;DHT22;8313;49.894;8.084;2023-07-13T14:25:43;26.50;59.30
16408;DHT22;8313;49.894;8.084;2023-07-13T14:28:27;26.30;59.60
16408;DHT22;8313;49.894;8.084;2023-07-13T14:30:54;26.40;59.20
16408;DHT22;8313;49.894;8.084;2023-07-13T14:33:23;26.30;59.40
16408;DHT22;8313;49.894;8.084;2023-07-13T14:35:50;26.20;59.60
16408;DHT22;8313;49.894;8.084;2023-07-13T14:38:18;26.20;59.80
16408;DHT22;8313;49.894;8.084;2023-07-13T14:40:45;26.30;59.30
16408;DHT22;8313;49.894;8.084;2023-07-13T14:43:12;26.20;59.40
16408;DHT22;8313;49.894;8.084;2023-07-13T14:45:44;26.30;59.40
16408;DHT22;8313;49.894;8.084;2023-07-13T14:48:22;26.30;59.30
16408;DHT22;8313;49.894;8.084;2023-07-13T14:50:54;26.20;59.10
16408;DHT22;8313;49.894;8.084;2023-07-13T14:53:20;26.20;59.20
16408;DHT22;8313;49.894;8.084;2023-07-13T14:55:46;26.10;59.00
16408;DHT22;8313;49.894;8.084;2023-07-13T14:58:12;26.20;59.30
16408;DHT22;8313;49.894;8.084;2023-07-13T15:00:39;26.20;59.30
16408;DHT22;8313;49.894;8.084;2023-07-13T15:03:17;26.20;59.30
16408;DHT22;8313;49.894;8.084;2023-07-13T15:05:47;26.10;59.50
16408;DHT22;8313;49.894;8.084;2023-07-13T15:08:13;26.10;59.70
16408;DHT22;8313;49.894;8.084;2023-07-13T15:10:38;26.10;59.50
16408;DHT22;8313;49.894;8.084;2023-07-13T15:13:21;26.10;59.40
16408;DHT22;8313;49.894;8.084;2023-07-13T15:15:49;26.20;59.10
16408;DHT22;8313;49.894;8.084;2023-07-13T15:18:17;26.20;59.30
16408;DHT22;8313;49.894;8.084;2023-07-13T15:20:45;26.10;59.50
16408;DHT22;8313;49.894;8.084;2023-07-13T15:23:12;26.30;59.10
16408;DHT22;8313;49.894;8.084;2023-07-13T15:25:39;26.30;59.20
16408;DHT22;8313;49.894;8.084;2023-07-13T15:28:04;26.20;59.40
16408;DHT22;8313;49.894;8.084;2023-07-13T15:30:34;26.10;59.40
16408;DHT22;8313;49.894;8.084;2023-07-13T15:35:40;26.30;59.50
16408;DHT22;8313;49.894;8.084;2023-07-13T15:38:20;26.40;59.20
16408;DHT22;8313;49.894;8.084;2023-07-13T15:40:47;26.50;59.00
16408;DHT22;8313;49.894;8.084;2023-07-13T15:43:15;26.50;59.10
16408;DHT22;8313;49.894;8.084;2023-07-13T15:45:41;26.50;58.70
16408;DHT22;8313;49.894;8.084;2023-07-13T15:48:17;26.50;58.70
16408;DHT22;8313;49.894;8.084;2023-07-13T15:50:48;26.50;58.70
16408;DHT22;8313;49.894;8.084;2023-07-13T15:53:25;26.50;58.90
16408;DHT22;8313;49.894;8.084;2023-07-13T15:55:54;26.30;59.10
16408;DHT22;8313;49.894;8.084;2023-07-13T15:58:20;26.30;58.90
16408;DHT22;8313;49.894;8.084;2023-07-13T16:00:47;26.30;59.20
16408;DHT22;8313;49.894;8.084;2023-07-13T16:03:15;26.30;58.80
16408;DHT22;8313;49.894;8.084;2023-07-13T16:05:41;26.30;58.40
16408;DHT22;8313;49.894;8.084;2023-07-13T16:08:24;26.30;58.80
16408;DHT22;8313;49.894;8.084;2023-07-13T16:10:51;26.40;58.50
16408;DHT22;8313;49.894;8.084;2023-07-13T16:13:19;26.40;58.30
16408;DHT22;8313;49.894;8.084;2023-07-13T16:15:46;26.40;58.90
16408;DHT22;8313;49.894;8.084;2023-07-13T16:18:13;26.40;58.50
16408;DHT22;8313;49.894;8.084;2023-07-13T16:20:41;26.40;58.10
16408;DHT22;8313;49.894;8.084;2023-07-13T16:23:10;26.40;58.40
16408;DHT22;8313;49.894;8.084;2023-07-13T16:25:37;26.50;58.40
16408;DHT22;8313;49.894;8.084;2023-07-13T16:28:03;26.50;58.00
16408;DHT22;8313;49.894;8.084;2023-07-13T16:30:30;26.40;57.80
16408;DHT22;8313;49.894;8.084;2023-07-13T16:32:57;26.40;57.50
16408;DHT22;8313;49.894;8.084;2023-07-13T16:35:26;26.40;57.50
16408;DHT22;8313;49.894;8.084;2023-07-13T16:37:53;26.50;57.60
16408;DHT22;8313;49.894;8.084;2023-07-13T16:40:26;26.50;57.70
16408;DHT22;8313;49.894;8.084;2023-07-13T16:42:54;26.50;57.60
16408;DHT22;8313;49.894;8.084;2023-07-13T16:45:26;26.50;57.70
16408;DHT22;8313;49.894;8.084;2023-07-13T16:47:54;26.60;58.00
16408;DHT22;8313;49.894;8.084;2023-07-13T16:50:22;26.60;58.20